sensor_id;sensor_type;location;lat;lon;timestamp;temperature;humidity
16066;DHT22;8137;48.952;8.970;2022-08-21T18:14:07;24.10;54.10
16066;DHT22;8137;48.952;8.970;2022-08-21T18:16:35;23.90;55.90
16066;DHT22;8137;48.952;8.970;2022-08-21T18:19:04;23.80;56.30
16066;DHT22;8137;48.952;8.970;2022-08-21T18:21:32;23.70;56.30
16066;DHT22;8137;48.952;8.970;2022-08-21T18:23:57;23.50;57.30
16066;DHT22;8137;48.952;8.970;2022-08-21T18:26:32;23.30;58.50
16066;DHT22;8137;48.952;8.970;2022-08-21T18:29:00;23.20;59.60
16066;DHT22;8137;48.952;8.970;2022-08-21T18:31:31;23.00;60.00
16066;DHT22;8137;48.952;8.970;2022-08-21T18:33:58;22.80;61.10
16066;DHT22;8137;48.952;8.970;2022-08-21T18:36:28;22.70;62.40
16066;DHT22;8137;48.952;8.970;2022-08-21T18:38:54;22.60;61.30
16066;DHT22;8137;48.952;8.970;2022-08-21T18:41:20;22.50;62.90
16066;DHT22;8137;48.952;8.970;2022-08-21T18:43:46;22.30;64.60
16066;DHT22;8137;48.952;8.970;2022-08-21T18:46:12;22.20;64.60
16066;DHT22;8137;48.952;8.970;2022-08-21T18:48:37;22.10;65.50
16066;DHT22;8137;48.952;8.970;2022-08-21T18:51:03;22.00;67.30
16066;DHT22;8137;48.952;8.970;2022-08-21T18:53:29;21.80;68.40
16066;DHT22;8137;48.952;8.970;2022-08-21T18:55:55;21.70;70.20
16066;DHT22;8137;48.952;8.970;2022-08-21T18:58:20;21.50;71.70
16066;DHT22;8137;48.952;8.970;2022-08-21T19:00:49;21.40;71.40
16066;DHT22;8137;48.952;8.970;2022-08-21T19:03:20;21.30;70.90
16066;DHT22;8137;48.952;8.970;2022-08-21T19:05:46;21.20;70.10
16066;DHT22;8137;48.952;8.970;2022-08-21T19:08:14;21.00;71.80
16066;DHT22;8137;48.952;8.970;2022-08-21T19:10:43;20.90;74.40
16066;DHT22;8137;48.952;8.970;2022-08-21T19:13:15;20.80;74.80
16066;DHT22;8137;48.952;8.970;2022-08-21T19:15:42;20.70;75.40
16066;DHT22;8137;48.952;8.970;2022-08-21T19:18:11;20.60;76.30
16066;DHT22;8137;48.952;8.970;2022-08-21T19:20:38;20.50;77.10
16066;DHT22;8137;48.952;8.970;2022-08-21T19:23:09;20.50;77.50
16066;DHT22;8137;48.952;8.970;2022-08-21T19:25:36;20.40;78.60
16066;DHT22;8137;48.952;8.970;2022-08-21T19:28:08;20.30;80.30
16066;DHT22;8137;48.952;8.970;2022-08-21T19:30:43;20.20;80.90
16066;DHT22;8137;48.952;8.970;2022-08-21T19:33:15;20.20;80.40
16066;DHT22;8137;48.952;8.970;2022-08-21T19:35:43;20.10;82.20
16066;DHT22;8137;48.952;8.970;2022-08-21T19:38:09;20.00;82.80
16066;DHT22;8137;48.952;8.970;2022-08-21T19:40:34;19.90;85.20
16066;DHT22;8137;48.952;8.970;2022-08-21T19:43:00;19.80;85.90
16066;DHT22;8137;48.952;8.970;2022-08-21T19:45:26;19.70;86.30
16066;DHT22;8137;48.952;8.970;2022-08-21T19:47:51;19.60;87.40
16066;DHT22;8137;48.952;8.970;2022-08-21T19:50:17;19.60;87.20
16066;DHT22;8137;48.952;8.970;2022-08-21T19:52:43;19.50;88.00
16066;DHT22;8137;48.952;8.970;2022-08-21T19:55:09;19.50;89.50
16066;DHT22;8137;48.952;8.970;2022-08-21T19:57:38;19.40;88.20
16066;DHT22;8137;48.952;8.970;2022-08-21T20:00:06;19.40;90.90
16066;DHT22;8137;48.952;8.970;2022-08-21T20:02:33;19.30;92.20
16066;DHT22;8137;48.952;8.970;2022-08-21T20:05:00;19.10;91.20
16066;DHT22;8137;48.952;8.970;2022-08-21T20:07:25;19.00;91.00
16066;DHT22;8137;48.952;8.970;2022-08-21T20:09:51;18.80;90.60
16066;DHT22;8137;48.952;8.970;2022-08-21T20:12:16;18.70;91.00
16066;DHT22;8137;48.952;8.970;2022-08-21T20:14:45;18.60;92.70
16066;DHT22;8137;48.952;8.970;2022-08-21T20:17:13;18.60;92.60
16066;DHT22;8137;48.952;8.970;2022-08-21T20:19:40;18.50;92.40
16066;DHT22;8137;48.952;8.970;2022-08-21T20:22:06;18.40;92.50
16066;DHT22;8137;48.952;8.970;2022-08-21T20:24:33;18.40;93.10
16066;DHT22;8137;48.952;8.970;2022-08-21T20:27:00;18.30;92.90
16066;DHT22;8137;48.952;8.970;2022-08-21T20:29:27;18.20;93.10
16066;DHT22;8137;48.952;8.970;2022-08-21T20:31:53;18.10;94.80
16066;DHT22;8137;48.952;8.970;2022-08-21T20:34:19;18.00;97.10
16066;DHT22;8137;48.952;8.970;2022-08-21T20:36:45;17.90;97.10
16066;DHT22;8137;48.952;8.970;2022-08-21T20:39:11;17.80;98.00
16066;DHT22;8137;48.952;8.970;2022-08-21T20:41:36;17.80;98.30
16066;DHT22;8137;48.952;8.970;2022-08-21T20:44:03;17.80;97.40
16066;DHT22;8137;48.952;8.970;2022-08-21T20:46:30;17.70;96.80
16066;DHT22;8137;48.952;8.970;2022-08-21T20:48:56;17.60;98.50
16066;DHT22;8137;48.952;8.970;2022-08-21T20:51:33;17.60;98.10
16066;DHT22;8137;48.952;8.970;2022-08-21T20:56:59;17.50;97.70
16066;DHT22;8137;48.952;8.970;2022-08-21T21:07:29;17.20;99.90
16066;DHT22;8137;48.952;8.970;2022-08-21T21:10:00;17.10;99.90
16066;DHT22;8137;48.952;8.970;2022-08-21T21:12:32;17.00;99.90
16066;DHT22;8137;48.952;8.970;2022-08-21T21:15:04;17.00;99.90
16066;DHT22;8137;48.952;8.970;2022-08-21T21:17:46;17.10;99.90
16066;DHT22;8137;48.952;8.970;2022-08-21T21:20:25;17.10;99.90
16066;DHT22;8137;48.952;8.970;2022-08-21T21:22:56;17.10;99.90
16066;DHT22;8137;48.952;8.970;2022-08-21T21:25:41;17.00;99.90
16066;DHT22;8137;48.952;8.970;2022-08-21T21:28:13;16.90;99.90
16066;DHT22;8137;48.952;8.970;2022-08-21T21:30:44;16.90;99.90
16066;DHT22;8137;48.952;8.970;2022-08-21T21:33:10;16.80;99.90
16066;DHT22;8137;48.952;8.970;2022-08-21T21:35:48;16.90;99.90
16066;DHT22;8137;48.952;8.970;2022-08-21T21:38:33;16.80;99.90
16066;DHT22;8137;48.952;8.970;2022-08-21T21:43:52;16.80;99.90
16066;DHT22;8137;48.952;8.970;2022-08-21T21:46:30;16.80;99.90
16066;DHT22;8137;48.952;8.970;2022-08-21T21:51:54;16.60;99.90
16066;DHT22;8137;48.952;8.970;2022-08-21T21:54:42;16.60;99.90
16066;DHT22;8137;48.952;8.970;2022-08-21T22:00:05;16.40;99.90
16066;DHT22;8137;48.952;8.970;2022-08-21T22:08:00;16.20;99.90
16066;DHT22;8137;48.952;8.970;2022-08-21T22:10:41;16.10;99.90
16066;DHT22;8137;48.952;8.970;2022-08-21T22:13:18;16.10;99.90
16066;DHT22;8137;48.952;8.970;2022-08-21T22:15:47;16.10;99.90
16066;DHT22;8137;48.952;8.970;2022-08-21T22:18:19;16.10;99.90
16066;DHT22;8137;48.952;8.970;2022-08-21T22:20:53;16.00;99.90
16066;DHT22;8137;48.952;8.970;2022-08-21T22:23:26;16.00;99.90
16066;DHT22;8137;48.952;8.970;2022-08-21T22:25:58;16.00;99.90
16066;DHT22;8137;48.952;8.970;2022-08-21T22:28:26;16.00;99.90
16066;DHT22;8137;48.952;8.970;2022-08-21T22:33:40;16.00;99.90
16066;DHT22;8137;48.952;8.970;2022-08-21T22:36:15;15.90;99.90
16066;DHT22;8137;48.952;8.970;2022-08-21T22:38:41;15.90;99.90
16066;DHT22;8137;48.952;8.970;2022-08-21T22:41:27;15.90;99.90
16066;DHT22;8137;48.952;8.970;2022-08-21T22:44:02;15.90;99.90
16066;DHT22;8137;48.952;8.970;2022-08-21T22:46:46;15.80;99.90
16066;DHT22;8137;48.952;8.970;2022-08-21T22:49:24;15.80;99.90
16066;DHT22;8137;48.952;8.970;2022-08-21T22:51:56;15.80;99.90
16066;DHT22;8137;48.952;8.970;2022-08-21T22:54:34;15.70;99.90
16066;DHT22;8137;48.952;8.970;2022-08-21T22:57:06;15.60;99.90
16066;DHT22;8137;48.952;8.970;2022-08-21T22:59:35;15.50;99.90
16066;DHT22;8137;48.952;8.970;2022-08-21T23:04:47;15.40;99.90
16066;DHT22;8137;48.952;8.970;2022-08-21T23:09:55;15.30;99.90
16066;DHT22;8137;48.952;8.970;2022-08-21T23:12:51;15.20;99.90
16066;DHT22;8137;48.952;8.970;2022-08-21T23:15:18;15.30;99.90
16066;DHT22;8137;48.952;8.970;2022-08-21T23:17:57;15.20;99.90
16066;DHT22;8137;48.952;8.970;2022-08-21T23:23:22;15.20;99.90
16066;DHT22;8137;48.952;8.970;2022-08-21T23:28:39;15.20;99.90
16066;DHT22;8137;48.952;8.970;2022-08-21T23:51:36;15.20;99.90
16066;DHT22;8137;48.952;8.970;2022-08-21T23:59:57;15.20;99.90
